createdAt,value
2022-09-06T00:01:39.175Z,60.50
2022-09-06T00:04:06.129Z,60.60
2022-09-06T00:06:32.992Z,60.80
2022-09-06T00:08:59.993Z,60.90
2022-09-06T00:11:26.978Z,60.90
2022-09-06T00:13:53.804Z,60.90
2022-09-06T00:16:30.139Z,60.60
2022-09-06T00:18:57.584Z,60.60
2022-09-06T00:21:26.806Z,60.30
2022-09-06T00:23:54.234Z,60.40
2022-09-06T00:26:22.628Z,60.20
2022-09-06T00:28:49.928Z,60.60
2022-09-06T00:31:20.268Z,60.70
2022-09-06T00:33:47.447Z,60.90
2022-09-06T00:36:14.871Z,60.70
2022-09-06T00:38:42.403Z,60.80
2022-09-06T00:41:11.037Z,61.00
2022-09-06T00:43:38.179Z,61.40
2022-09-06T00:46:07.775Z,61.40
2022-09-06T00:48:37.160Z,61.60
2022-09-06T00:51:08.039Z,61.50
2022-09-06T00:53:34.932Z,61.50
2022-09-06T00:56:02.298Z,61.50
2022-09-06T00:58:29.315Z,61.40
2022-09-06T01:00:56.700Z,61.10
2022-09-06T01:03:25.274Z,61.20
2022-09-06T01:06:17.887Z,61.30
2022-09-06T01:09:27.213Z,61.70
2022-09-06T01:12:24.397Z,61.80
2022-09-06T01:15:17.172Z,61.80
2022-09-06T01:18:02.984Z,62.20
2022-09-06T01:20:33.078Z,62.00
2022-09-06T01:23:42.369Z,61.90
2022-09-06T01:26:47.616Z,62.20
2022-09-06T01:29:34.305Z,62.40
2022-09-06T01:32:24.103Z,62.60
2022-09-06T01:35:13.927Z,63.10
2022-09-06T01:37:41.186Z,63.70
2022-09-06T01:40:08.571Z,63.80
2022-09-06T01:42:36.565Z,63.90
2022-09-06T01:45:13.894Z,63.70
2022-09-06T01:47:40.845Z,63.60
2022-09-06T01:50:21.866Z,63.70
2022-09-06T01:53:09.213Z,63.80
2022-09-06T01:55:42.230Z,64.00
2022-09-06T01:58:33.864Z,63.80
2022-09-06T02:01:07.397Z,63.70
2022-09-06T02:03:40.974Z,63.40
2022-09-06T02:06:13.147Z,63.40
2022-09-06T02:08:44.786Z,63.50
2022-09-06T02:11:15.663Z,63.60
2022-09-06T02:13:50.452Z,63.80
2022-09-06T02:16:21.555Z,64.10
2022-09-06T02:18:59.039Z,64.20
2022-09-06T02:21:36.134Z,64.20
2022-09-06T02:24:07.954Z,64.50
2022-09-06T02:26:42.440Z,64.60
2022-09-06T02:29:09.659Z,64.80
2022-09-06T02:31:43.104Z,64.80
2022-09-06T02:34:13.913Z,64.90
2022-09-06T02:36:40.937Z,65.00
2022-09-06T02:39:07.721Z,65.20
2022-09-06T02:41:34.973Z,65.20
2022-09-06T02:44:02.168Z,65.20
2022-09-06T02:46:29.060Z,65.30
2022-09-06T02:48:56.014Z,65.40
2022-09-06T02:51:22.977Z,65.40
2022-09-06T02:53:49.890Z,65.50
2022-09-06T02:56:16.726Z,65.50
2022-09-06T02:58:43.756Z,65.50
2022-09-06T03:01:10.789Z,65.50
2022-09-06T03:03:37.788Z,65.50
2022-09-06T03:06:04.926Z,65.40
2022-09-06T03:08:34.149Z,65.40
2022-09-06T03:11:01.238Z,65.50
2022-09-06T03:13:28.312Z,65.60
2022-09-06T03:15:58.226Z,65.50
2022-09-06T03:18:26.876Z,65.50
2022-09-06T03:20:55.373Z,65.70
2022-09-06T03:23:24.667Z,65.80
2022-09-06T03:25:51.751Z,65.80
2022-09-06T03:28:19.523Z,65.70
2022-09-06T03:30:48.251Z,65.70
2022-09-06T03:33:15.717Z,65.70
2022-09-06T03:35:52.217Z,66.00
2022-09-06T03:38:19.871Z,66.10
2022-09-06T03:40:50.422Z,66.20
2022-09-06T03:43:18.407Z,66.20
2022-09-06T03:45:57.446Z,66.30
2022-09-06T03:48:27.856Z,66.40
2022-09-06T03:50:56.675Z,66.50
2022-09-06T03:53:25.213Z,66.40
2022-09-06T03:55:53.951Z,66.50
2022-09-06T03:58:23.185Z,66.40
2022-09-06T04:00:59.297Z,66.40
2022-09-06T04:03:26.318Z,66.60
2022-09-06T04:05:53.122Z,66.60
2022-09-06T04:08:20.052Z,66.80
2022-09-06T04:10:50.984Z,66.80
2022-09-06T04:13:18.028Z,66.80
2022-09-06T04:15:48.015Z,66.80
2022-09-06T04:18:15.846Z,66.80
2022-09-06T04:20:43.127Z,66.90
2022-09-06T04:23:10.161Z,66.90
2022-09-06T04:25:37.274Z,67.00
2022-09-06T04:28:04.049Z,67.00
2022-09-06T04:30:31.220Z,66.80
2022-09-06T04:32:58.795Z,66.90
2022-09-06T04:35:25.655Z,66.90
2022-09-06T04:37:52.399Z,66.80
2022-09-06T04:40:19.306Z,66.90
2022-09-06T04:42:46.160Z,67.10
2022-09-06T04:45:12.928Z,66.90
2022-09-06T04:47:39.877Z,67.00
2022-09-06T04:50:07.190Z,67.10
2022-09-06T04:52:33.970Z,67.20
2022-09-06T04:55:00.825Z,67.20
2022-09-06T04:57:27.627Z,67.20
2022-09-06T04:59:54.366Z,67.00
2022-09-06T05:02:21.416Z,67.00
2022-09-06T05:04:48.360Z,67.30
2022-09-06T05:07:15.105Z,67.50
2022-09-06T05:09:41.972Z,67.60
2022-09-06T05:12:08.741Z,67.60
2022-09-06T05:14:35.870Z,67.80
2022-09-06T05:17:02.818Z,67.80
2022-09-06T05:19:29.781Z,67.90
2022-09-06T05:21:56.749Z,68.10
2022-09-06T05:24:23.841Z,68.00
2022-09-06T05:26:50.746Z,68.10
2022-09-06T05:29:17.586Z,68.10
2022-09-06T05:31:44.390Z,68.10
2022-09-06T05:34:13.494Z,68.00
2022-09-06T05:36:41.668Z,68.00
2022-09-06T05:39:08.587Z,68.10
2022-09-06T05:41:35.468Z,68.20
2022-09-06T05:44:03.733Z,68.20
2022-09-06T05:46:30.607Z,68.20
2022-09-06T05:49:01.129Z,68.20
2022-09-06T05:51:27.989Z,68.30
2022-09-06T05:53:55.019Z,68.20
2022-09-06T05:56:22.565Z,68.20
2022-09-06T05:58:49.370Z,68.20
2022-09-06T06:01:22.163Z,68.20
2022-09-06T06:03:54.292Z,68.20
2022-09-06T06:06:22.127Z,68.20
2022-09-06T06:08:49.310Z,68.20
2022-09-06T06:11:17.042Z,68.20
2022-09-06T06:13:44.499Z,68.20
2022-09-06T06:16:13.704Z,68.20
2022-09-06T06:18:40.836Z,68.20
2022-09-06T06:21:16.205Z,68.10
2022-09-06T06:23:45.778Z,68.00
2022-09-06T06:26:13.772Z,67.90
2022-09-06T06:28:41.348Z,67.80
2022-09-06T06:31:10.116Z,67.70
2022-09-06T06:33:37.027Z,67.70
2022-09-06T06:36:06.987Z,67.80
2022-09-06T06:38:38.969Z,67.80
2022-09-06T06:41:07.377Z,67.70
2022-09-06T06:43:38.110Z,67.80
2022-09-06T06:46:09.432Z,67.70
2022-09-06T06:48:37.680Z,67.90
2022-09-06T06:51:04.755Z,68.00
2022-09-06T06:53:32.805Z,67.90
2022-09-06T06:55:59.725Z,67.90
2022-09-06T06:58:26.913Z,67.80
2022-09-06T07:00:54.010Z,67.80
2022-09-06T07:03:21.624Z,67.80
2022-09-06T07:08:37.133Z,67.70
2022-09-06T07:11:05.920Z,67.70
2022-09-06T07:13:34.168Z,67.80
2022-09-06T07:16:28.293Z,67.80
2022-09-06T07:18:55.457Z,67.90
2022-09-06T07:21:42.349Z,67.70
2022-09-06T07:24:09.823Z,67.80
2022-09-06T07:26:39.398Z,67.80
2022-09-06T07:29:07.928Z,67.80
2022-09-06T07:34:25.776Z,67.40
2022-09-06T07:36:53.983Z,67.20
2022-09-06T07:39:21.024Z,67.00
2022-09-06T07:41:47.820Z,66.80
2022-09-06T07:44:15.427Z,66.60
2022-09-06T07:46:42.912Z,66.40
2022-09-06T07:49:09.758Z,66.40
2022-09-06T07:51:36.604Z,66.20
2022-09-06T07:56:50.395Z,66.00
2022-09-06T07:59:17.231Z,65.90
2022-09-06T08:01:44.049Z,65.80
2022-09-06T08:04:13.914Z,65.50
2022-09-06T08:09:30.797Z,64.90
2022-09-06T08:11:57.539Z,64.90
2022-09-06T08:14:24.542Z,64.70
2022-09-06T08:16:51.536Z,64.70
2022-09-06T08:19:18.544Z,64.30
2022-09-06T08:21:45.389Z,64.00
2022-09-06T08:24:12.250Z,63.70
2022-09-06T08:26:45.447Z,63.40
2022-09-06T08:29:13.265Z,63.10
2022-09-06T08:31:42.967Z,62.90
2022-09-06T08:34:12.835Z,62.60
2022-09-06T08:36:40.795Z,62.30
2022-09-06T08:39:10.112Z,61.70
2022-09-06T08:41:55.292Z,61.50
2022-09-06T08:44:55.892Z,61.70
2022-09-06T08:47:24.108Z,61.20
2022-09-06T08:50:02.476Z,60.40
2022-09-06T08:52:54.489Z,60.00
2022-09-06T08:55:41.396Z,60.00
2022-09-06T08:58:33.977Z,59.60
2022-09-06T09:01:11.441Z,59.50
2022-09-06T09:03:40.273Z,59.50
2022-09-06T09:06:10.108Z,59.00
2022-09-06T09:09:01.684Z,58.80
2022-09-06T09:11:33.381Z,58.70
2022-09-06T09:14:19.437Z,57.90
2022-09-06T09:16:51.362Z,57.40
2022-09-06T09:19:18.239Z,56.90
2022-09-06T09:21:45.164Z,56.60
2022-09-06T09:24:13.833Z,56.60
2022-09-06T09:26:57.021Z,56.50
2022-09-06T09:29:27.936Z,56.00
2022-09-06T09:31:56.699Z,55.60
2022-09-06T09:34:37.087Z,55.40
2022-09-06T09:37:46.063Z,54.90
2022-09-06T09:40:25.919Z,54.70
2022-09-06T09:42:54.935Z,54.40
2022-09-06T09:45:29.079Z,54.40
2022-09-06T09:47:56.182Z,54.10
2022-09-06T09:50:29.566Z,53.90
2022-09-06T09:52:56.418Z,53.40
2022-09-06T09:55:26.378Z,53.10
2022-09-06T09:57:54.287Z,53.40
2022-09-06T10:00:36.310Z,53.70
2022-09-06T10:03:12.381Z,53.50
2022-09-06T10:05:39.980Z,53.40
2022-09-06T10:08:11.011Z,53.60
2022-09-06T10:10:46.768Z,53.10
2022-09-06T10:13:22.802Z,52.70
2022-09-06T10:15:52.185Z,52.30
2022-09-06T10:18:41.311Z,52.20
2022-09-06T10:21:16.406Z,52.10
2022-09-06T10:26:53.085Z,51.60
2022-09-06T10:29:45.452Z,51.50
2022-09-06T10:32:40.418Z,50.90
2022-09-06T10:35:07.765Z,51.00
2022-09-06T10:37:51.208Z,51.10
2022-09-06T10:40:30.889Z,50.70
2022-09-06T10:43:01.412Z,50.50
2022-09-06T10:45:35.644Z,50.50
2022-09-06T10:48:26.275Z,50.20
2022-09-06T10:51:00.991Z,50.40
2022-09-06T10:54:00.369Z,50.40
2022-09-06T10:56:45.370Z,50.10
2022-09-06T10:59:42.446Z,49.50
2022-09-06T11:02:38.319Z,48.90
2022-09-06T11:10:55.410Z,48.60
2022-09-06T11:13:28.249Z,48.50
2022-09-06T11:16:02.720Z,49.10
2022-09-06T11:18:57.122Z,48.80
2022-09-06T11:21:42.769Z,48.30
2022-09-06T11:24:13.983Z,48.50
2022-09-06T11:26:43.725Z,48.20
2022-09-06T11:29:22.317Z,48.30
2022-09-06T11:34:53.667Z,48.20
2022-09-06T11:37:32.608Z,48.20
2022-09-06T11:42:52.143Z,48.20
2022-09-06T11:45:22.004Z,48.30
2022-09-06T11:47:53.192Z,48.40
2022-09-06T11:50:29.284Z,48.30
2022-09-06T11:53:16.973Z,48.60
2022-09-06T11:55:50.144Z,48.60
2022-09-06T11:58:17.260Z,48.60
2022-09-06T12:01:07.849Z,48.80
2022-09-06T12:04:06.946Z,48.60
2022-09-06T12:07:02.597Z,48.40
2022-09-06T12:09:42.666Z,48.00
2022-09-06T12:12:14.891Z,47.10
2022-09-06T12:14:46.763Z,46.90
2022-09-06T12:17:13.658Z,46.30
2022-09-06T12:19:48.502Z,46.20
2022-09-06T12:22:31.103Z,46.10
2022-09-06T12:25:03.832Z,45.90
2022-09-06T12:27:54.876Z,45.20
2022-09-06T12:30:38.735Z,44.90
2022-09-06T12:33:08.584Z,44.90
2022-09-06T12:38:25.578Z,44.50
2022-09-06T12:40:58.360Z,44.60
2022-09-06T12:43:26.362Z,44.40
2022-09-06T12:45:53.224Z,44.30
2022-09-06T12:48:35.154Z,44.00
2022-09-06T12:51:08.233Z,43.20
2022-09-06T12:53:35.722Z,43.00
2022-09-06T12:56:12.586Z,42.50
2022-09-06T12:58:40.107Z,42.20
2022-09-06T13:01:35.091Z,42.00
2022-09-06T13:04:08.024Z,41.50
2022-09-06T13:06:42.622Z,41.30
2022-09-06T13:09:14.080Z,41.00
2022-09-06T13:11:47.351Z,41.10
2022-09-06T13:14:25.199Z,41.00
2022-09-06T13:16:53.701Z,41.40
2022-09-06T13:19:38.500Z,41.10
2022-09-06T13:22:08.031Z,41.10
2022-09-06T13:24:35.309Z,40.20
2022-09-06T13:27:23.185Z,40.40
2022-09-06T13:30:34.698Z,39.70
2022-09-06T13:33:03.034Z,39.40
2022-09-06T13:35:32.899Z,39.60
2022-09-06T13:38:38.082Z,39.50
2022-09-06T13:41:13.591Z,39.40
2022-09-06T13:43:47.713Z,39.40
2022-09-06T13:46:17.886Z,39.20
2022-09-06T13:48:45.116Z,39.30
2022-09-06T13:51:12.131Z,39.30
2022-09-06T13:53:39.065Z,38.60
2022-09-06T13:56:08.426Z,38.50
2022-09-06T13:58:36.311Z,38.20
2022-09-06T14:01:05.057Z,38.30
2022-09-06T14:03:32.975Z,38.30
2022-09-06T14:06:00.673Z,38.00
2022-09-06T14:08:43.814Z,38.10
2022-09-06T14:11:16.214Z,38.20
2022-09-06T14:13:43.133Z,38.70
2022-09-06T14:16:10.332Z,38.80
2022-09-06T14:18:37.557Z,39.40
2022-09-06T14:21:05.566Z,39.30
2022-09-06T14:23:32.512Z,38.80
2022-09-06T14:26:01.310Z,39.00
2022-09-06T14:28:31.215Z,39.50
2022-09-06T14:30:58.367Z,39.90
2022-09-06T14:33:25.391Z,39.90
2022-09-06T14:35:52.381Z,39.80
2022-09-06T14:38:19.661Z,39.20
2022-09-06T14:40:47.310Z,39.30
2022-09-06T14:43:15.832Z,39.00
2022-09-06T14:45:42.695Z,38.90
2022-09-06T14:48:09.749Z,38.30
2022-09-06T14:50:37.378Z,38.00
2022-09-06T14:53:08.881Z,38.20
2022-09-06T14:55:45.843Z,38.00
2022-09-06T14:58:14.919Z,38.00
2022-09-06T15:00:45.678Z,37.80
2022-09-06T15:03:12.604Z,37.50
2022-09-06T15:05:39.500Z,37.70
2022-09-06T15:08:06.536Z,37.40
2022-09-06T15:10:33.854Z,36.70
2022-09-06T15:13:00.613Z,36.60
2022-09-06T15:15:27.471Z,36.50
2022-09-06T15:17:55.689Z,36.70
2022-09-06T15:20:22.559Z,36.60
2022-09-06T15:22:56.416Z,37.00
2022-09-06T15:25:37.148Z,37.10
2022-09-06T15:28:05.001Z,37.00
2022-09-06T15:30:35.522Z,37.10
2022-09-06T15:33:02.484Z,36.90
2022-09-06T15:35:29.258Z,36.70
2022-09-06T15:37:56.285Z,36.40
2022-09-06T15:40:24.479Z,36.10
2022-09-06T15:42:52.064Z,36.30
2022-09-06T15:45:19.167Z,36.40
2022-09-06T15:47:46.029Z,36.60
2022-09-06T15:50:12.933Z,36.70
2022-09-06T15:52:40.541Z,36.80
2022-09-06T15:55:26.385Z,36.80
2022-09-06T15:57:56.328Z,36.80
2022-09-06T16:00:23.859Z,37.10
2022-09-06T16:02:57.122Z,37.20
2022-09-06T16:08:11.721Z,37.80
2022-09-06T16:10:39.280Z,38.00
2022-09-06T16:13:06.111Z,38.10
2022-09-06T16:15:33.263Z,38.30
2022-09-06T16:18:05.203Z,38.50
2022-09-06T16:20:33.530Z,38.60
2022-09-06T16:23:00.482Z,38.70
2022-09-06T16:25:28.261Z,38.80
2022-09-06T16:27:55.432Z,38.90
2022-09-06T16:30:22.952Z,39.00
2022-09-06T16:32:50.351Z,38.90
2022-09-06T16:35:17.354Z,38.80
2022-09-06T16:37:44.593Z,38.80
2022-09-06T16:40:11.908Z,39.00
2022-09-06T16:42:38.873Z,39.10
2022-09-06T16:45:05.933Z,39.20
2022-09-06T16:47:32.674Z,39.30
2022-09-06T16:49:59.862Z,39.20
2022-09-06T16:52:26.803Z,39.20
2022-09-06T16:54:54.333Z,39.20
2022-09-06T16:57:24.936Z,39.30
2022-09-06T16:59:51.942Z,39.50
2022-09-06T17:02:22.332Z,39.70
2022-09-06T17:04:51.365Z,39.80
2022-09-06T17:07:18.301Z,39.80
2022-09-06T17:09:47.227Z,40.20
2022-09-06T17:12:15.031Z,40.30
2022-09-06T17:14:42.453Z,40.30
2022-09-06T17:17:10.286Z,40.50
2022-09-06T17:19:40.877Z,40.60
2022-09-06T17:22:12.912Z,40.80
2022-09-06T17:24:41.726Z,40.70
2022-09-06T17:27:09.925Z,40.80
2022-09-06T17:29:37.169Z,40.70
2022-09-06T17:32:05.470Z,40.70
2022-09-06T17:34:32.509Z,40.90
2022-09-06T17:36:59.884Z,41.10
2022-09-06T17:39:27.308Z,41.20
2022-09-06T17:41:59.748Z,41.40
2022-09-06T17:44:27.777Z,41.70
2022-09-06T17:47:12.034Z,42.00
2022-09-06T17:49:41.222Z,42.10
2022-09-06T17:52:08.343Z,42.20
2022-09-06T17:54:35.607Z,42.40
2022-09-06T17:57:02.853Z,42.80
2022-09-06T17:59:35.433Z,43.70
2022-09-06T18:02:03.667Z,44.10
2022-09-06T18:04:33.772Z,44.40
2022-09-06T18:07:01.322Z,44.60
2022-09-06T18:09:29.502Z,44.70
2022-09-06T18:11:58.621Z,44.60
2022-09-06T18:14:28.819Z,44.60
2022-09-06T18:16:56.105Z,44.50
2022-09-06T18:19:23.670Z,44.20
2022-09-06T18:21:51.826Z,44.00
2022-09-06T18:24:18.947Z,43.80
2022-09-06T18:26:46.393Z,43.50
2022-09-06T18:29:16.488Z,43.40
2022-09-06T18:31:44.050Z,43.20
2022-09-06T18:34:11.568Z,43.20
2022-09-06T18:36:38.947Z,43.30
2022-09-06T18:39:06.598Z,43.70
2022-09-06T18:41:53.416Z,43.80
2022-09-06T18:44:21.646Z,43.80
2022-09-06T18:46:48.940Z,43.80
2022-09-06T18:49:16.846Z,43.70
2022-09-06T18:51:45.783Z,43.70
2022-09-06T18:54:13.216Z,43.80
2022-09-06T18:56:40.530Z,43.80
2022-09-06T18:59:07.712Z,43.90
2022-09-06T19:01:37.761Z,43.80
2022-09-06T19:04:05.929Z,43.80
2022-09-06T19:06:34.358Z,43.90
2022-09-06T19:09:04.427Z,43.90
2022-09-06T19:11:31.916Z,44.20
2022-09-06T19:13:59.166Z,44.30
2022-09-06T19:16:27.802Z,44.30
2022-09-06T19:18:56.962Z,44.50
2022-09-06T19:21:25.587Z,44.60
2022-09-06T19:24:02.298Z,44.60
2022-09-06T19:26:32.418Z,44.80
2022-09-06T19:29:02.023Z,44.90
2022-09-06T19:31:32.108Z,45.00
2022-09-06T19:33:59.909Z,45.20
2022-09-06T19:36:28.839Z,45.30
2022-09-06T19:39:03.498Z,45.50
2022-09-06T19:41:33.290Z,45.70
2022-09-06T19:44:01.618Z,45.90
2022-09-06T19:46:28.546Z,46.00
2022-09-06T19:48:56.169Z,46.10
2022-09-06T19:51:24.429Z,46.30
2022-09-06T19:53:53.418Z,46.50
2022-09-06T19:56:26.515Z,46.70
2022-09-06T19:58:57.924Z,46.90
2022-09-06T20:01:29.272Z,47.00
2022-09-06T20:03:56.956Z,47.00
2022-09-06T20:06:41.310Z,47.20
2022-09-06T20:09:10.177Z,47.40
2022-09-06T20:11:37.920Z,47.40
2022-09-06T20:14:05.125Z,47.30
2022-09-06T20:16:32.549Z,47.30
2022-09-06T20:19:00.368Z,47.30
2022-09-06T20:21:28.645Z,47.20
2022-09-06T20:23:57.533Z,47.20
2022-09-06T20:26:26.073Z,47.20
2022-09-06T20:29:01.322Z,47.20
2022-09-06T20:31:29.846Z,47.20
2022-09-06T20:33:59.744Z,47.30
2022-09-06T20:36:26.992Z,47.30
2022-09-06T20:38:54.121Z,47.70
2022-09-06T20:41:23.831Z,48.20
2022-09-06T20:43:56.057Z,48.60
2022-09-06T20:46:25.216Z,49.00
2022-09-06T20:48:52.510Z,49.40
2022-09-06T20:51:21.803Z,49.70
2022-09-06T20:53:55.522Z,50.10
2022-09-06T20:56:24.853Z,50.40
2022-09-06T20:58:57.343Z,50.80
2022-09-06T21:01:26.003Z,51.10
2022-09-06T21:03:56.438Z,51.30
2022-09-06T21:06:25.006Z,51.50
2022-09-06T21:08:52.431Z,51.80
2022-09-06T21:11:19.658Z,52.00
2022-09-06T21:13:53.508Z,52.20
2022-09-06T21:16:24.528Z,52.60
2022-09-06T21:18:53.255Z,52.70
2022-09-06T21:21:20.226Z,52.90
2022-09-06T21:23:46.986Z,53.00
2022-09-06T21:26:15.906Z,53.20
2022-09-06T21:28:43.450Z,53.40
2022-09-06T21:31:12.762Z,53.40
2022-09-06T21:33:42.407Z,53.60
2022-09-06T21:36:11.916Z,53.80
2022-09-06T21:38:40.569Z,53.90
2022-09-06T21:41:08.881Z,54.00
2022-09-06T21:43:35.923Z,54.20
2022-09-06T21:46:12.170Z,54.40
2022-09-06T21:48:40.712Z,54.90
2022-09-06T21:51:08.955Z,55.20
2022-09-06T21:53:37.091Z,55.60
2022-09-06T21:56:05.459Z,55.90
2022-09-06T21:58:33.147Z,56.40
2022-09-06T22:01:01.370Z,57.00
2022-09-06T22:03:30.800Z,57.60
2022-09-06T22:05:57.640Z,58.30
2022-09-06T22:08:25.259Z,58.00
2022-09-06T22:10:52.334Z,58.40
2022-09-06T22:13:20.356Z,59.40
2022-09-06T22:15:47.278Z,60.30
2022-09-06T22:18:14.125Z,60.70
2022-09-06T22:20:40.957Z,61.50
2022-09-06T22:23:09.934Z,61.70
2022-09-06T22:25:36.771Z,62.30
2022-09-06T22:28:03.673Z,63.10
2022-09-06T22:30:31.029Z,63.60
2022-09-06T22:32:58.171Z,63.80
2022-09-06T22:35:25.043Z,64.10
2022-09-06T22:37:51.857Z,64.40
2022-09-06T22:40:19.200Z,64.50
2022-09-06T22:42:46.182Z,64.40
2022-09-06T22:45:13.131Z,64.60
2022-09-06T22:47:40.022Z,64.80
2022-09-06T22:50:08.428Z,64.80
2022-09-06T22:52:35.242Z,65.00
2022-09-06T22:55:02.311Z,65.40
2022-09-06T22:57:29.217Z,65.60
2022-09-06T22:59:56.073Z,66.10
2022-09-06T23:02:22.813Z,66.50
2022-09-06T23:04:54.640Z,66.60
2022-09-06T23:07:21.701Z,66.90
2022-09-06T23:09:48.503Z,67.10
2022-09-06T23:12:15.353Z,67.00
2022-09-06T23:14:42.467Z,66.70
2022-09-06T23:17:10.578Z,66.90
2022-09-06T23:19:37.505Z,67.20
2022-09-06T23:22:04.295Z,67.30
2022-09-06T23:24:31.085Z,67.20
2022-09-06T23:26:58.062Z,67.50
2022-09-06T23:29:24.890Z,67.50
2022-09-06T23:31:51.683Z,68.00
2022-09-06T23:34:18.655Z,68.20
2022-09-06T23:36:45.523Z,68.40
2022-09-06T23:39:12.465Z,68.50
2022-09-06T23:41:39.401Z,68.80
2022-09-06T23:44:06.248Z,69.00
2022-09-06T23:46:33.664Z,69.30
2022-09-06T23:49:00.445Z,69.50
2022-09-06T23:51:27.266Z,69.40
2022-09-06T23:53:54.349Z,69.40
2022-09-06T23:56:22.348Z,69.50
2022-09-06T23:58:49.070Z,69.50
